createdAt,value
2022-10-24T00:01:17.797Z,99180.56
2022-10-24T00:03:45.457Z,99182.41
2022-10-24T00:06:13.529Z,99185.47
2022-10-24T00:08:42.159Z,99194.41
2022-10-24T00:11:10.457Z,99188.69
2022-10-24T00:13:39.917Z,99188.22
2022-10-24T00:16:08.152Z,99186.81
2022-10-24T00:18:36.793Z,99183.22
2022-10-24T00:21:04.397Z,99188.59
2022-10-24T00:23:31.996Z,99181.25
2022-10-24T00:26:01.526Z,99182.28
2022-10-24T00:28:29.625Z,99183.69
2022-10-24T00:30:57.775Z,99177.06
2022-10-24T00:33:25.538Z,99184.44
2022-10-24T00:35:54.446Z,99174.75
2022-10-24T00:38:21.810Z,99174.75
2022-10-24T00:40:49.428Z,99167.94
2022-10-24T00:43:18.437Z,99161.72
2022-10-24T00:45:48.565Z,99168.72
2022-10-24T00:48:20.453Z,99166.16
2022-10-24T00:50:48.953Z,99162.56
2022-10-24T00:53:18.376Z,99159.53
2022-10-24T00:55:47.861Z,99155.56
2022-10-24T00:58:16.182Z,99149.59
2022-10-24T01:00:43.614Z,99150.66
2022-10-24T01:03:11.645Z,99151.84
2022-10-24T01:05:50.005Z,99152.88
2022-10-24T01:08:27.076Z,99148.34
2022-10-24T01:10:58.717Z,99147.06
2022-10-24T01:13:33.862Z,99144.38
2022-10-24T01:16:06.889Z,99142.28
2022-10-24T01:18:38.745Z,99144.38
2022-10-24T01:21:26.905Z,99145.31
2022-10-24T01:24:18.857Z,99152.22
2022-10-24T01:27:00.283Z,99137.38
2022-10-24T01:29:41.789Z,99135.31
2022-10-24T01:32:12.770Z,99132.00
2022-10-24T01:34:44.613Z,99126.06
2022-10-24T01:37:15.394Z,99116.38
2022-10-24T01:39:47.480Z,99104.88
2022-10-24T01:42:17.593Z,99111.38
2022-10-24T01:44:49.764Z,99115.34
2022-10-24T01:47:20.649Z,99106.47
2022-10-24T01:49:50.969Z,99099.25
2022-10-24T01:52:19.552Z,99089.38
2022-10-24T01:54:47.985Z,99109.19
2022-10-24T01:57:15.843Z,99112.81
2022-10-24T01:59:46.808Z,99099.84
2022-10-24T02:02:17.656Z,99090.19
2022-10-24T02:04:50.629Z,99093.25
2022-10-24T02:07:19.043Z,99095.09
2022-10-24T02:09:47.806Z,99078.88
2022-10-24T02:12:18.069Z,99083.31
2022-10-24T02:14:49.950Z,99096.72
2022-10-24T02:17:18.147Z,99079.00
2022-10-24T02:19:45.912Z,99083.19
2022-10-24T02:22:23.549Z,99084.97
2022-10-24T02:24:54.035Z,99081.22
2022-10-24T02:27:24.300Z,99073.84
2022-10-24T02:29:56.976Z,99072.47
2022-10-24T02:32:28.341Z,99069.78
2022-10-24T02:34:56.421Z,99069.69
2022-10-24T02:37:25.462Z,99060.78
2022-10-24T02:39:53.160Z,99055.34
2022-10-24T02:42:21.002Z,99053.56
2022-10-24T02:44:48.923Z,99051.00
2022-10-24T02:47:19.160Z,99052.06
2022-10-24T02:49:46.577Z,99050.34
2022-10-24T02:52:14.396Z,99046.81
2022-10-24T02:54:41.741Z,99048.81
2022-10-24T02:57:09.073Z,99046.84
2022-10-24T02:59:36.420Z,99041.94
2022-10-24T03:02:03.845Z,99044.97
2022-10-24T03:04:32.546Z,99040.75
2022-10-24T03:06:59.997Z,99042.03
2022-10-24T03:09:27.375Z,99039.72
2022-10-24T03:11:54.731Z,99039.91
2022-10-24T03:14:22.084Z,99043.66
2022-10-24T03:16:49.452Z,99049.59
2022-10-24T03:19:16.881Z,99040.84
2022-10-24T03:21:45.541Z,99050.63
2022-10-24T03:24:12.903Z,99043.03
2022-10-24T03:26:40.259Z,99050.94
2022-10-24T03:29:07.586Z,99046.63
2022-10-24T03:31:35.045Z,99043.78
2022-10-24T03:34:02.429Z,99051.13
2022-10-24T03:36:29.768Z,99047.84
2022-10-24T03:38:58.409Z,99050.59
2022-10-24T03:41:25.753Z,99043.63
2022-10-24T03:43:53.106Z,99051.78
2022-10-24T03:46:20.424Z,99043.34
2022-10-24T03:48:47.758Z,99037.09
2022-10-24T03:51:15.426Z,99029.63
2022-10-24T03:53:42.773Z,99029.59
2022-10-24T03:56:11.945Z,99024.97
2022-10-24T03:58:39.262Z,99023.72
2022-10-24T04:01:06.791Z,99027.81
2022-10-24T04:03:34.168Z,99026.88
2022-10-24T04:06:01.492Z,99022.66
2022-10-24T04:08:28.825Z,99020.19
2022-10-24T04:10:56.161Z,99037.53
2022-10-24T04:13:24.797Z,99031.63
2022-10-24T04:15:52.148Z,99031.38
2022-10-24T04:18:19.644Z,99032.31
2022-10-24T04:20:47.029Z,99030.25
2022-10-24T04:23:14.444Z,99036.75
2022-10-24T04:25:41.814Z,99040.63
2022-10-24T04:28:09.180Z,99039.91
2022-10-24T04:30:38.212Z,99047.63
2022-10-24T04:33:05.721Z,99049.97
2022-10-24T04:35:33.063Z,99050.53
2022-10-24T04:38:00.412Z,99046.09
2022-10-24T04:40:27.901Z,99043.50
2022-10-24T04:42:55.228Z,99043.75
2022-10-24T04:45:22.592Z,99044.44
2022-10-24T04:47:51.287Z,99042.94
2022-10-24T04:50:18.621Z,99042.94
2022-10-24T04:52:46.029Z,99039.69
2022-10-24T04:55:13.596Z,99043.75
2022-10-24T04:57:40.966Z,99031.84
2022-10-24T05:00:09.394Z,99034.78
2022-10-24T05:02:36.800Z,99045.84
2022-10-24T05:05:06.445Z,99043.56
2022-10-24T05:07:33.856Z,99044.50
2022-10-24T05:10:01.204Z,99045.44
2022-10-24T05:12:28.633Z,99047.75
2022-10-24T05:14:55.951Z,99041.44
2022-10-24T05:17:23.596Z,99044.59
2022-10-24T05:19:50.974Z,99035.72
2022-10-24T05:22:19.725Z,99041.19
2022-10-24T05:24:47.131Z,99041.00
2022-10-24T05:27:14.638Z,99031.84
2022-10-24T05:29:41.942Z,99029.91
2022-10-24T05:32:09.270Z,99028.63
2022-10-24T05:34:36.609Z,99029.09
2022-10-24T05:37:03.952Z,99026.38
2022-10-24T05:39:32.657Z,99029.09
2022-10-24T05:42:00.053Z,99024.72
2022-10-24T05:44:27.381Z,99015.88
2022-10-24T05:46:54.755Z,99014.63
2022-10-24T05:49:22.372Z,99021.13
2022-10-24T05:51:49.965Z,99022.41
2022-10-24T05:54:17.320Z,99026.63
2022-10-24T05:56:46.008Z,99017.28
2022-10-24T05:59:13.457Z,99014.88
2022-10-24T06:01:41.144Z,99024.25
2022-10-24T06:04:11.355Z,99023.59
2022-10-24T06:06:41.369Z,99030.81
2022-10-24T06:09:08.792Z,99035.00
2022-10-24T06:11:36.230Z,99033.97
2022-10-24T06:14:05.990Z,99047.63
2022-10-24T06:16:34.099Z,99049.91
2022-10-24T06:19:01.558Z,99049.91
2022-10-24T06:21:28.926Z,99038.13
2022-10-24T06:23:56.281Z,99048.19
2022-10-24T06:26:24.247Z,99036.50
2022-10-24T06:28:51.713Z,99050.75
2022-10-24T06:31:20.714Z,99061.34
2022-10-24T06:33:48.326Z,99062.16
2022-10-24T06:36:15.749Z,99065.78
2022-10-24T06:38:43.065Z,99072.69
2022-10-24T06:41:12.429Z,99068.38
2022-10-24T06:43:41.923Z,99067.56
2022-10-24T06:46:10.324Z,99075.84
2022-10-24T06:48:39.050Z,99076.09
2022-10-24T06:51:06.814Z,99080.88
2022-10-24T06:53:34.902Z,99080.06
2022-10-24T06:56:02.765Z,99083.91
2022-10-24T06:58:32.365Z,99084.03
2022-10-24T07:00:59.878Z,99088.56
2022-10-24T07:03:27.409Z,99093.84
2022-10-24T07:05:56.152Z,99098.97
2022-10-24T07:08:23.546Z,99097.34
2022-10-24T07:10:50.920Z,99113.34
2022-10-24T07:13:18.231Z,99111.22
2022-10-24T07:15:45.533Z,99116.00
2022-10-24T07:18:15.734Z,99118.75
2022-10-24T07:20:43.206Z,99113.53
2022-10-24T07:23:11.861Z,99118.91
2022-10-24T07:25:39.192Z,99118.41
2022-10-24T07:28:07.038Z,99123.13
2022-10-24T07:30:34.753Z,99124.09
2022-10-24T07:33:02.082Z,99121.25
2022-10-24T07:35:29.428Z,99115.88
2022-10-24T07:37:56.813Z,99120.81
2022-10-24T07:40:25.505Z,99128.00
2022-10-24T07:42:52.900Z,99122.75
2022-10-24T07:45:20.445Z,99122.47
2022-10-24T07:47:48.372Z,99121.53
2022-10-24T07:50:17.119Z,99118.22
2022-10-24T07:52:44.465Z,99117.19
2022-10-24T07:55:11.937Z,99119.53
2022-10-24T07:57:40.608Z,99120.13
2022-10-24T08:00:09.323Z,99120.13
2022-10-24T08:02:42.718Z,99116.34
2022-10-24T08:05:11.410Z,99126.75
2022-10-24T08:07:39.106Z,99115.16
2022-10-24T08:10:09.126Z,99123.44
2022-10-24T08:12:36.647Z,99117.03
2022-10-24T08:15:06.087Z,99123.31
2022-10-24T08:17:33.446Z,99113.38
2022-10-24T08:20:00.842Z,99106.09
2022-10-24T08:22:28.242Z,99108.28
2022-10-24T08:24:55.557Z,99105.88
2022-10-24T08:27:23.102Z,99096.41
2022-10-24T08:29:53.232Z,99098.69
2022-10-24T08:32:22.128Z,99101.31
2022-10-24T08:34:49.505Z,99095.06
2022-10-24T08:37:16.836Z,99087.06
2022-10-24T08:39:44.189Z,99095.03
2022-10-24T08:42:14.284Z,99078.28
2022-10-24T08:44:43.187Z,99087.66
2022-10-24T08:47:20.659Z,99082.84
2022-10-24T08:49:51.263Z,99084.84
2022-10-24T08:52:25.427Z,99092.31
2022-10-24T08:54:53.445Z,99097.97
2022-10-24T08:57:23.646Z,99096.28
2022-10-24T08:59:51.440Z,99090.81
2022-10-24T09:02:21.496Z,99082.41
2022-10-24T09:04:56.069Z,99091.88
2022-10-24T09:09:53.654Z,99099.97
2022-10-24T09:12:21.794Z,99094.31
2022-10-24T09:14:54.217Z,99089.53
2022-10-24T09:17:23.673Z,99103.59
2022-10-24T09:19:55.831Z,99110.59
2022-10-24T09:22:24.893Z,99107.53
2022-10-24T09:24:55.382Z,99111.59
2022-10-24T09:27:25.168Z,99100.16
2022-10-24T09:29:53.194Z,99103.44
2022-10-24T09:32:23.065Z,99118.03
2022-10-24T09:34:51.801Z,99111.13
2022-10-24T09:37:39.150Z,99124.53
2022-10-24T09:40:21.554Z,99131.13
2022-10-24T09:42:52.452Z,99120.56
2022-10-24T09:45:30.413Z,99135.41
2022-10-24T09:47:58.886Z,99141.91
2022-10-24T09:50:28.401Z,99134.31
2022-10-24T09:52:59.041Z,99146.78
2022-10-24T09:55:28.606Z,99137.94
2022-10-24T09:57:58.039Z,99140.63
2022-10-24T10:00:28.392Z,99146.66
2022-10-24T10:03:03.925Z,99155.53
2022-10-24T10:05:43.978Z,99156.94
2022-10-24T10:08:13.245Z,99159.88
2022-10-24T10:10:41.410Z,99160.13
2022-10-24T10:13:23.378Z,99160.03
2022-10-24T10:15:53.641Z,99165.31
2022-10-24T10:18:27.621Z,99165.75
2022-10-24T10:21:02.863Z,99172.91
2022-10-24T10:23:32.585Z,99180.81
2022-10-24T10:26:06.503Z,99175.13
2022-10-24T10:28:36.151Z,99176.16
2022-10-24T10:31:03.997Z,99188.56
2022-10-24T10:33:39.350Z,99181.13
2022-10-24T10:36:11.338Z,99183.00
2022-10-24T10:38:45.530Z,99183.97
2022-10-24T10:41:19.691Z,99181.22
2022-10-24T10:43:51.387Z,99180.56
2022-10-24T10:46:24.062Z,99194.19
2022-10-24T10:49:01.169Z,99190.53
2022-10-24T10:51:37.898Z,99187.28
2022-10-24T10:54:13.920Z,99194.63
2022-10-24T10:56:46.677Z,99196.38
2022-10-24T10:59:24.698Z,99211.66
2022-10-24T11:01:59.060Z,99216.41
2022-10-24T11:04:33.651Z,99213.47
2022-10-24T11:07:06.762Z,99203.63
2022-10-24T11:09:37.933Z,99203.94
2022-10-24T11:12:10.995Z,99214.72
2022-10-24T11:14:40.422Z,99217.78
2022-10-24T11:17:12.949Z,99211.56
2022-10-24T11:19:45.689Z,99210.47
2022-10-24T11:22:18.035Z,99216.47
2022-10-24T11:24:48.430Z,99204.31
2022-10-24T11:27:21.543Z,99211.09
2022-10-24T11:29:54.111Z,99212.25
2022-10-24T11:32:26.518Z,99215.09
2022-10-24T11:34:57.058Z,99213.28
2022-10-24T11:37:28.747Z,99203.00
2022-10-24T11:39:58.316Z,99218.19
2022-10-24T11:42:28.501Z,99216.50
2022-10-24T11:45:00.777Z,99217.94
2022-10-24T11:48:04.171Z,99229.88
2022-10-24T11:50:35.945Z,99216.66
2022-10-24T11:53:14.523Z,99218.47
2022-10-24T11:55:47.087Z,99218.78
2022-10-24T11:58:16.926Z,99213.81
2022-10-24T12:01:01.048Z,99213.44
2022-10-24T12:03:41.709Z,99214.41
2022-10-24T12:06:17.846Z,99229.31
2022-10-24T12:08:57.756Z,99229.16
2022-10-24T12:11:35.343Z,99229.00
2022-10-24T12:14:14.537Z,99226.44
2022-10-24T12:16:52.224Z,99231.66
2022-10-24T12:19:21.088Z,99201.47
2022-10-24T12:21:52.613Z,99220.81
2022-10-24T12:24:30.056Z,99228.47
2022-10-24T12:26:59.847Z,99232.81
2022-10-24T12:29:28.181Z,99225.34
2022-10-24T12:31:55.694Z,99233.69
2022-10-24T12:34:48.889Z,99215.56
2022-10-24T12:37:36.753Z,99233.50
2022-10-24T12:40:55.688Z,99230.50
2022-10-24T12:43:29.981Z,99232.25
2022-10-24T12:46:00.029Z,99244.34
2022-10-24T12:48:32.503Z,99252.00
2022-10-24T12:51:05.627Z,99239.00
2022-10-24T12:53:55.750Z,99242.28
2022-10-24T12:56:24.425Z,99242.59
2022-10-24T12:59:02.760Z,99244.13
2022-10-24T13:01:34.363Z,99252.88
2022-10-24T13:04:39.487Z,99259.53
2022-10-24T13:07:40.341Z,99249.00
2022-10-24T13:10:23.150Z,99238.50
2022-10-24T13:13:05.972Z,99251.34
2022-10-24T13:15:42.439Z,99255.31
2022-10-24T13:18:18.462Z,99248.44
2022-10-24T13:20:49.553Z,99246.16
2022-10-24T13:23:19.445Z,99244.53
2022-10-24T13:25:47.510Z,99238.75
2022-10-24T13:28:43.304Z,99237.94
2022-10-24T13:31:53.314Z,99223.44
2022-10-24T13:34:25.981Z,99232.47
2022-10-24T13:37:01.226Z,99230.38
2022-10-24T13:39:34.297Z,99215.63
2022-10-24T13:42:07.832Z,99253.03
2022-10-24T13:44:43.985Z,99237.41
2022-10-24T13:47:21.119Z,99246.88
2022-10-24T13:49:52.898Z,99239.63
2022-10-24T13:52:24.172Z,99248.63
2022-10-24T13:54:56.656Z,99247.13
2022-10-24T13:57:26.667Z,99255.50
2022-10-24T14:00:00.410Z,99249.69
2022-10-24T14:02:32.324Z,99258.81
2022-10-24T14:05:00.643Z,99261.56
2022-10-24T14:07:30.502Z,99254.34
2022-10-24T14:10:02.721Z,99242.44
2022-10-24T14:12:32.579Z,99252.50
2022-10-24T14:15:02.581Z,99254.03
2022-10-24T14:17:31.355Z,99250.06
2022-10-24T14:20:01.163Z,99251.78
2022-10-24T14:22:30.473Z,99250.16
2022-10-24T14:24:57.861Z,99254.00
2022-10-24T14:27:25.683Z,99237.06
2022-10-24T14:29:57.260Z,99248.66
2022-10-24T14:32:27.222Z,99256.81
2022-10-24T14:34:55.320Z,99247.84
2022-10-24T14:37:28.999Z,99256.63
2022-10-24T14:39:57.043Z,99263.03
2022-10-24T14:42:25.078Z,99257.66
2022-10-24T14:44:57.476Z,99262.69
2022-10-24T14:47:31.915Z,99255.34
2022-10-24T14:50:02.287Z,99276.72
2022-10-24T14:52:36.466Z,99265.38
2022-10-24T14:55:06.342Z,99265.13
2022-10-24T14:57:38.172Z,99276.56
2022-10-24T15:00:08.271Z,99278.59
2022-10-24T15:02:42.157Z,99284.53
2022-10-24T15:05:27.684Z,99277.88
2022-10-24T15:08:20.558Z,99281.72
2022-10-24T15:10:44.822Z,99282.09
2022-10-24T15:13:14.621Z,99276.81
2022-10-24T15:15:51.218Z,99274.81
2022-10-24T15:18:22.453Z,99279.97
2022-10-24T15:20:51.830Z,99290.63
2022-10-24T15:23:26.409Z,99284.75
2022-10-24T15:26:02.597Z,99279.50
2022-10-24T15:28:45.987Z,99295.84
2022-10-24T15:31:14.561Z,99292.81
2022-10-24T15:33:43.404Z,99285.94
2022-10-24T15:36:18.393Z,99289.81
2022-10-24T15:38:45.899Z,99292.47
2022-10-24T15:41:13.301Z,99285.06
2022-10-24T15:43:40.784Z,99280.91
2022-10-24T15:46:08.212Z,99287.53
2022-10-24T15:48:35.595Z,99283.19
2022-10-24T15:51:04.862Z,99294.56
2022-10-24T15:53:32.495Z,99294.56
2022-10-24T15:55:59.886Z,99293.78
2022-10-24T15:58:28.649Z,99296.00
2022-10-24T16:00:56.101Z,99303.75
2022-10-24T16:03:24.364Z,99308.31
2022-10-24T16:05:53.800Z,99312.22
2022-10-24T16:08:24.003Z,99322.31
2022-10-24T16:10:52.742Z,99313.41
2022-10-24T16:13:22.122Z,99328.66
2022-10-24T16:15:50.355Z,99324.13
2022-10-24T16:18:18.026Z,99325.41
2022-10-24T16:20:45.434Z,99322.50
2022-10-24T16:23:15.320Z,99317.81
2022-10-24T16:25:44.399Z,99311.44
2022-10-24T16:28:11.878Z,99320.50
2022-10-24T16:30:40.805Z,99331.53
2022-10-24T16:33:08.335Z,99327.91
2022-10-24T16:35:37.838Z,99336.78
2022-10-24T16:38:06.446Z,99350.56
2022-10-24T16:40:42.040Z,99358.19
2022-10-24T16:43:12.972Z,99358.63
2022-10-24T16:45:40.819Z,99353.06
2022-10-24T16:48:08.194Z,99352.94
2022-10-24T16:50:35.846Z,99357.50
2022-10-24T16:53:06.715Z,99360.00
2022-10-24T16:55:34.434Z,99369.41
2022-10-24T16:58:01.784Z,99352.41
2022-10-24T17:00:30.601Z,99357.50
2022-10-24T17:02:58.798Z,99358.78
2022-10-24T17:05:27.773Z,99362.50
2022-10-24T17:07:55.395Z,99372.63
2022-10-24T17:10:24.771Z,99368.91
2022-10-24T17:12:53.089Z,99373.88
2022-10-24T17:15:22.395Z,99381.66
2022-10-24T17:17:51.483Z,99379.53
2022-10-24T17:20:19.077Z,99367.72
2022-10-24T17:22:47.305Z,99379.53
2022-10-24T17:25:19.489Z,99368.00
2022-10-24T17:27:47.418Z,99373.69
2022-10-24T17:30:16.461Z,99379.69
2022-10-24T17:32:44.288Z,99387.72
2022-10-24T17:35:16.541Z,99392.22
2022-10-24T17:37:54.729Z,99398.81
2022-10-24T17:40:24.219Z,99391.63
2022-10-24T17:42:51.972Z,99397.53
2022-10-24T17:45:21.805Z,99393.78
2022-10-24T17:47:49.616Z,99396.06
2022-10-24T17:50:18.925Z,99401.00
2022-10-24T17:52:50.688Z,99399.56
2022-10-24T17:55:40.911Z,99395.72
2022-10-24T17:58:09.132Z,99394.66
2022-10-24T18:00:37.060Z,99391.38
2022-10-24T18:03:05.152Z,99397.16
2022-10-24T18:05:37.370Z,99393.16
2022-10-24T18:08:05.165Z,99398.56
2022-10-24T18:10:32.717Z,99398.13
2022-10-24T18:13:00.228Z,99395.91
2022-10-24T18:15:29.013Z,99403.44
2022-10-24T18:17:56.451Z,99407.16
2022-10-24T18:20:23.798Z,99396.72
2022-10-24T18:22:52.564Z,99400.22
2022-10-24T18:25:22.872Z,99397.72
2022-10-24T18:27:50.941Z,99402.25
2022-10-24T18:30:19.328Z,99408.59
2022-10-24T18:32:47.452Z,99403.91
2022-10-24T18:35:16.125Z,99405.09
2022-10-24T18:37:43.514Z,99413.31
2022-10-24T18:40:13.777Z,99416.03
2022-10-24T18:42:45.136Z,99410.28
2022-10-24T18:45:14.909Z,99405.28
2022-10-24T18:47:42.711Z,99416.41
2022-10-24T18:50:13.913Z,99421.16
2022-10-24T18:52:45.081Z,99422.56
2022-10-24T18:55:18.723Z,99414.97
2022-10-24T18:57:46.596Z,99419.53
2022-10-24T19:00:16.502Z,99417.28
2022-10-24T19:02:49.679Z,99425.06
2022-10-24T19:05:21.198Z,99429.75
2022-10-24T19:07:49.959Z,99434.44
2022-10-24T19:10:22.298Z,99428.09
2022-10-24T19:12:50.065Z,99424.59
2022-10-24T19:15:18.240Z,99434.28
2022-10-24T19:17:46.413Z,99426.41
2022-10-24T19:20:16.149Z,99432.78
2022-10-24T19:22:43.982Z,99434.28
2022-10-24T19:25:11.497Z,99432.84
2022-10-24T19:27:40.715Z,99432.25
2022-10-24T19:30:09.365Z,99437.19
2022-10-24T19:32:36.708Z,99432.25
2022-10-24T19:35:04.678Z,99441.28
2022-10-24T19:37:32.111Z,99434.69
2022-10-24T19:39:59.457Z,99435.75
2022-10-24T19:42:26.808Z,99435.75
2022-10-24T19:44:56.438Z,99438.41
2022-10-24T19:47:23.805Z,99443.97
2022-10-24T19:49:51.169Z,99450.56
2022-10-24T19:52:18.841Z,99452.00
2022-10-24T19:54:46.176Z,99450.78
2022-10-24T19:57:13.565Z,99457.56
2022-10-24T19:59:40.870Z,99458.97
2022-10-24T20:02:10.964Z,99460.81
2022-10-24T20:04:40.214Z,99465.16
2022-10-24T20:07:08.543Z,99457.50
2022-10-24T20:09:38.201Z,99466.41
2022-10-24T20:12:06.421Z,99454.47
2022-10-24T20:14:33.825Z,99466.63
2022-10-24T20:17:01.187Z,99460.00
2022-10-24T20:19:29.892Z,99460.22
2022-10-24T20:21:59.025Z,99456.53
2022-10-24T20:24:30.433Z,99461.69
2022-10-24T20:26:57.850Z,99450.16
2022-10-24T20:29:25.248Z,99468.88
2022-10-24T20:31:52.560Z,99459.44
2022-10-24T20:34:20.560Z,99453.66
2022-10-24T20:36:49.227Z,99470.91
2022-10-24T20:39:20.648Z,99475.63
2022-10-24T20:41:51.735Z,99478.09
2022-10-24T20:44:21.433Z,99472.97
2022-10-24T20:46:48.808Z,99473.81
2022-10-24T20:49:16.160Z,99474.66
2022-10-24T20:51:43.700Z,99477.09
2022-10-24T20:54:12.367Z,99489.84
2022-10-24T20:56:42.480Z,99483.66
2022-10-24T20:59:12.881Z,99476.69
2022-10-24T21:01:40.394Z,99486.13
2022-10-24T21:04:07.937Z,99482.63
2022-10-24T21:06:35.540Z,99487.78
2022-10-24T21:09:04.687Z,99489.63
2022-10-24T21:11:35.230Z,99487.38
2022-10-24T21:14:04.338Z,99497.03
2022-10-24T21:16:32.045Z,99503.41
2022-10-24T21:18:59.710Z,99515.31
2022-10-24T21:21:27.654Z,99500.31
2022-10-24T21:23:59.646Z,99500.53
2022-10-24T21:26:30.052Z,99500.31
2022-10-24T21:29:08.657Z,99500.94
2022-10-24T21:31:42.210Z,99510.38
2022-10-24T21:34:09.561Z,99509.53
2022-10-24T21:36:36.990Z,99514.28
2022-10-24T21:39:04.725Z,99505.63
2022-10-24T21:41:32.050Z,99521.63
2022-10-24T21:44:00.721Z,99513.94
2022-10-24T21:46:29.071Z,99511.13
2022-10-24T21:48:57.244Z,99505.50
2022-10-24T21:51:26.373Z,99514.78
2022-10-24T21:53:55.408Z,99522.38
2022-10-24T21:56:24.686Z,99528.13
2022-10-24T21:58:54.298Z,99537.97
2022-10-24T22:01:26.202Z,99527.50
2022-10-24T22:03:54.115Z,99535.28
2022-10-24T22:06:21.762Z,99538.78
2022-10-24T22:08:50.073Z,99538.75
2022-10-24T22:11:19.157Z,99541.44
2022-10-24T22:13:48.092Z,99536.31
2022-10-24T22:16:17.503Z,99545.78
2022-10-24T22:18:46.422Z,99543.06
2022-10-24T22:21:21.416Z,99544.91
2022-10-24T22:23:48.731Z,99546.03
2022-10-24T22:26:16.085Z,99547.69
2022-10-24T22:28:43.424Z,99552.63
2022-10-24T22:31:12.039Z,99554.75
2022-10-24T22:33:40.514Z,99559.59
2022-10-24T22:36:14.409Z,99548.53
2022-10-24T22:38:42.355Z,99549.19
2022-10-24T22:41:10.897Z,99554.91
2022-10-24T22:43:38.857Z,99553.28
2022-10-24T22:46:17.101Z,99555.34
2022-10-24T22:48:48.120Z,99561.16
2022-10-24T22:51:17.940Z,99562.19
2022-10-24T22:53:45.890Z,99559.97
2022-10-24T22:56:14.934Z,99561.19
2022-10-24T22:58:46.512Z,99556.69
2022-10-24T23:01:21.798Z,99563.69
2022-10-24T23:03:59.646Z,99573.53
2022-10-24T23:06:38.233Z,99561.41
2022-10-24T23:09:05.582Z,99567.03
2022-10-24T23:11:33.354Z,99565.00
2022-10-24T23:14:01.196Z,99554.13
2022-10-24T23:16:35.050Z,99567.56
2022-10-24T23:19:04.934Z,99564.53
2022-10-24T23:21:37.548Z,99568.41
2022-10-24T23:24:06.632Z,99582.78
2022-10-24T23:26:37.787Z,99563.66
2022-10-24T23:29:10.122Z,99563.88
2022-10-24T23:31:37.885Z,99574.34
2022-10-24T23:34:05.734Z,99574.16
2022-10-24T23:36:35.060Z,99573.63
2022-10-24T23:39:02.991Z,99577.53
2022-10-24T23:41:30.946Z,99577.72
2022-10-24T23:43:58.732Z,99578.97
2022-10-24T23:46:27.624Z,99581.34
2022-10-24T23:49:06.823Z,99586.91
2022-10-24T23:51:39.302Z,99588.66
2022-10-24T23:54:09.630Z,99586.38
2022-10-24T23:56:37.602Z,99584.19
2022-10-24T23:59:05.411Z,99580.44
